Trenton, Missouri
Current Conditions -  °F | °C
As of 7:53 AM on Wednesday 28 Jan 2015 (Local Time) from KLWD Reporting Station
Haze Haze  
Wind Chill: 21°   Ceiling: Unl
Heat Index: 30°   Visibility: 5mi
Dew Point: 27°   Wind: 10mph
Humidity: 88%   Direction: 130°SE
Pressure: 29.96"   Gusts: 18mph
Location:  40.07°N, 93.61°W
Report Text: KLWD 281353Z AUTO 13009G16KT 5SM BR CLR M01/M03 A2996 RMK AO2 SLP157 T10111028
Loading
Personal Weather Stations






























Interactive Weather Map New forecast layout! Learn more

10-Day Weather Forecast

Advertisements
Track Severe Weather on mobile